RKPC/CJU METAR and TAF weather

Enter ICAO airport designator
Station Type Date Time Source
RKPC METAR 2019/08/26 07:00 UTC NOAA

RKPC 260700Z 10005KT 060V130 9999 BKN050 BKN160 28/25 Q1009 NOSIG


Station Type Date Time Source
RKPC Decoded METAR 2019/08/26 07:00 UTC NOAA

Station name not available
Aug 26, 2019 - 03:00 AM EDT / 2019.08.26 0700 UTC
Wind: from the E (100 degrees) at 6 MPH (5 KT) (direction variable):0
Visibility: greater than 7 mile(s):0
Sky conditions: mostly cloudy
Temperature: 82 F (28 C)
Dew Point: 77 F (25 C)
Relative Humidity: 83%
Pressure (altimeter): 29.80 in. Hg (1009 hPa)
ob: RKPC 260700Z 10005KT 060V130 9999 BKN050 BKN160 28/25 Q1009 NOSIG
cycle: 7

Station Type Date Time Source
RKPC TAF 2019/08/26 06:09 UTC NOAA

TAF TAF RKPC 260500Z 2606/2712 09012KT 6000 -RA FEW010 BKN030 OVC100 TN25/2620Z TX29/2705Z
TEMPO 2617/2620 21012KT 4200 -TSRA FEW010CB BKN025 OVC080
BECMG 2701/2702 23015G25KT
BECMG 2710/2711 4200 RA

Example: see airport list